createdAt,value
2022-11-04T00:01:18.064Z,7.93
2022-11-04T00:03:44.699Z,7.55
2022-11-04T00:06:11.468Z,8.48
2022-11-04T00:08:38.330Z,9.77
2022-11-04T00:11:23.693Z,8.32
2022-11-04T00:13:51.052Z,6.55
2022-11-04T00:16:36.248Z,9.80
2022-11-04T00:19:03.244Z,7.78
2022-11-04T00:21:48.493Z,9.43
2022-11-04T00:24:33.801Z,8.73
2022-11-04T00:27:19.165Z,10.30
2022-11-04T00:29:46.185Z,8.05
2022-11-04T00:32:31.624Z,7.80
2022-11-04T00:34:58.778Z,8.93
2022-11-04T00:37:25.458Z,8.98
2022-11-04T00:39:52.115Z,10.10
2022-11-04T00:42:18.900Z,5.93
2022-11-04T00:44:45.821Z,6.75
2022-11-04T00:47:12.600Z,7.57
2022-11-04T00:49:39.487Z,11.07
2022-11-04T00:52:06.267Z,8.93
2022-11-04T00:54:33.326Z,7.38
2022-11-04T00:57:00.197Z,7.75
2022-11-04T00:59:27.041Z,7.60
2022-11-04T01:01:53.923Z,9.88
2022-11-04T01:04:20.714Z,7.68
2022-11-04T01:06:47.410Z,9.35
2022-11-04T01:09:15.216Z,7.22
2022-11-04T01:11:42.068Z,11.15
2022-11-04T01:14:09.057Z,8.18
2022-11-04T01:16:36.146Z,8.27
2022-11-04T01:19:03.675Z,7.97
2022-11-04T01:21:30.541Z,10.13
2022-11-04T01:23:57.482Z,6.90
2022-11-04T01:26:25.638Z,10.35
2022-11-04T01:28:54.775Z,9.85
2022-11-04T01:31:29.620Z,10.10
2022-11-04T01:33:58.004Z,8.63
2022-11-04T01:36:26.343Z,8.75
2022-11-04T01:38:56.307Z,7.68
2022-11-04T01:41:29.559Z,10.55
2022-11-04T01:43:56.294Z,12.30
2022-11-04T01:46:44.293Z,7.63
2022-11-04T01:49:31.054Z,8.45
2022-11-04T01:52:05.078Z,7.43
2022-11-04T01:54:32.300Z,18.35
2022-11-04T01:57:02.607Z,8.82
2022-11-04T01:59:38.853Z,9.20
2022-11-04T02:02:06.179Z,8.23
2022-11-04T02:04:33.624Z,10.55
2022-11-04T02:07:02.436Z,12.52
2022-11-04T02:09:31.345Z,9.10
2022-11-04T02:12:16.677Z,10.35
2022-11-04T02:14:45.621Z,7.22
2022-11-04T02:17:18.522Z,9.02
2022-11-04T02:20:00.395Z,13.10
2022-11-04T02:22:45.426Z,11.80
2022-11-04T02:25:15.123Z,10.48
2022-11-04T02:28:07.039Z,9.32
2022-11-04T02:30:41.863Z,9.00
2022-11-04T02:33:44.042Z,12.68
2022-11-04T02:36:22.570Z,8.65
2022-11-04T02:38:57.523Z,10.18
2022-11-04T02:41:27.381Z,8.77
2022-11-04T02:44:18.811Z,12.38
2022-11-04T02:47:00.311Z,9.88
2022-11-04T02:49:39.564Z,12.52
2022-11-04T02:52:09.860Z,12.55
2022-11-04T02:55:05.405Z,9.43
2022-11-04T02:57:35.931Z,11.27
2022-11-04T03:00:13.360Z,10.27
2022-11-04T03:02:44.433Z,9.65
2022-11-04T03:05:15.847Z,9.23
2022-11-04T03:07:45.096Z,13.75
2022-11-04T03:10:22.248Z,11.13
2022-11-04T03:12:55.327Z,13.52
2022-11-04T03:15:27.402Z,13.18
2022-11-04T03:18:12.228Z,16.85
2022-11-04T03:20:40.857Z,9.88
2022-11-04T03:23:09.705Z,9.88
2022-11-04T03:25:40.677Z,11.48
2022-11-04T03:28:19.868Z,9.23
2022-11-04T03:30:51.429Z,10.13
2022-11-04T03:33:24.816Z,10.13
2022-11-04T03:35:51.583Z,9.80
2022-11-04T03:38:18.242Z,10.70
2022-11-04T03:40:45.363Z,11.88
2022-11-04T03:43:16.494Z,10.90
2022-11-04T03:45:43.890Z,12.40
2022-11-04T03:48:11.677Z,10.90
2022-11-04T03:50:44.384Z,11.13
2022-11-04T03:53:13.497Z,13.98
2022-11-04T03:56:05.271Z,10.82
2022-11-04T03:58:53.310Z,13.27
2022-11-04T04:01:39.222Z,13.27
2022-11-04T04:04:33.650Z,10.18
2022-11-04T04:07:25.687Z,13.18
2022-11-04T04:10:01.579Z,10.43
2022-11-04T04:12:38.715Z,14.02
2022-11-04T04:15:11.734Z,15.10
2022-11-04T04:17:49.130Z,12.65
2022-11-04T04:20:23.453Z,13.55
2022-11-04T04:22:55.516Z,12.68
2022-11-04T04:25:44.131Z,15.30
2022-11-04T04:28:14.715Z,15.93
2022-11-04T04:30:42.364Z,11.40
2022-11-04T04:33:13.100Z,14.45
2022-11-04T04:35:44.526Z,13.52
2022-11-04T04:38:42.472Z,14.05
2022-11-04T04:41:50.249Z,12.73
2022-11-04T04:44:44.342Z,12.02
2022-11-04T04:47:23.211Z,14.73
2022-11-04T04:50:00.711Z,13.05
2022-11-04T04:52:33.490Z,12.63
2022-11-04T04:55:00.380Z,16.33
2022-11-04T04:57:27.070Z,12.23
2022-11-04T04:59:54.209Z,10.48
2022-11-04T05:02:21.078Z,14.20
2022-11-04T05:04:47.849Z,15.48
2022-11-04T05:07:14.742Z,14.55
2022-11-04T05:09:41.611Z,12.40
2022-11-04T05:12:08.529Z,13.88
2022-11-04T05:14:35.508Z,11.77
2022-11-04T05:17:02.224Z,13.55
2022-11-04T05:19:28.903Z,12.98
2022-11-04T05:21:55.557Z,14.70
2022-11-04T05:24:22.259Z,13.98
2022-11-04T05:26:48.992Z,13.35
2022-11-04T05:31:47.362Z,12.88
2022-11-04T05:34:14.291Z,13.48
2022-11-04T05:36:41.613Z,14.98
2022-11-04T05:39:12.568Z,12.80
2022-11-04T05:41:39.225Z,11.98
2022-11-04T05:44:06.995Z,12.38
2022-11-04T05:46:33.843Z,12.73
2022-11-04T05:49:00.481Z,12.27
2022-11-04T05:51:28.661Z,13.00
2022-11-04T05:53:55.478Z,19.20
2022-11-04T05:56:22.264Z,14.82
2022-11-04T05:58:49.011Z,15.65
2022-11-04T06:01:32.498Z,15.15
2022-11-04T06:04:00.458Z,12.50
2022-11-04T06:06:30.542Z,14.23
2022-11-04T06:08:57.819Z,12.73
2022-11-04T06:11:26.907Z,12.68
2022-11-04T06:13:57.461Z,10.35
2022-11-04T06:16:24.526Z,14.55
2022-11-04T06:18:51.950Z,13.18
2022-11-04T06:21:25.410Z,10.25
2022-11-04T06:23:53.833Z,12.48
2022-11-04T06:26:26.796Z,13.23
2022-11-04T06:28:55.131Z,12.55
2022-11-04T06:31:22.272Z,12.43
2022-11-04T06:33:49.244Z,13.32
2022-11-04T06:36:16.996Z,12.43
2022-11-04T06:38:44.312Z,15.27
2022-11-04T06:41:14.965Z,13.43
2022-11-04T06:43:41.813Z,19.02
2022-11-04T06:46:30.671Z,15.35
2022-11-04T06:48:57.546Z,14.18
2022-11-04T06:51:25.765Z,13.02
2022-11-04T06:53:52.501Z,14.77
2022-11-04T06:56:19.413Z,13.55
2022-11-04T06:58:53.684Z,15.85
2022-11-04T07:01:22.670Z,15.93
2022-11-04T07:03:54.887Z,14.23
2022-11-04T07:06:22.470Z,15.55
2022-11-04T07:08:51.780Z,15.10
2022-11-04T07:11:21.153Z,16.05
2022-11-04T07:13:49.039Z,17.10
2022-11-04T07:16:15.955Z,15.10
2022-11-04T07:18:42.663Z,19.80
2022-11-04T07:21:10.612Z,16.33
2022-11-04T07:23:37.533Z,14.82
2022-11-04T07:26:07.457Z,17.50
2022-11-04T07:28:35.151Z,20.17
2022-11-04T07:31:03.243Z,16.00
2022-11-04T07:33:29.901Z,17.75
2022-11-04T07:35:58.169Z,16.20
2022-11-04T07:38:25.263Z,17.50
2022-11-04T07:40:52.011Z,18.67
2022-11-04T07:43:18.765Z,17.00
2022-11-04T07:45:45.397Z,18.83
2022-11-04T07:48:12.452Z,16.55
2022-11-04T07:50:40.481Z,15.73
2022-11-04T07:53:08.399Z,17.52
2022-11-04T07:55:43.154Z,15.45
2022-11-04T07:58:10.351Z,16.35
2022-11-04T08:00:37.088Z,17.52
2022-11-04T08:03:03.831Z,23.95
2022-11-04T08:05:30.548Z,20.15
2022-11-04T08:07:57.880Z,16.80
2022-11-04T08:10:24.787Z,16.08
2022-11-04T08:12:52.337Z,18.02
2022-11-04T08:15:18.994Z,17.38
2022-11-04T08:17:45.598Z,16.58
2022-11-04T08:20:12.430Z,17.85
2022-11-04T08:22:39.176Z,14.73
2022-11-04T08:25:06.280Z,20.58
2022-11-04T08:27:34.704Z,19.52
2022-11-04T08:30:01.534Z,16.90
2022-11-04T08:32:28.251Z,16.02
2022-11-04T08:34:54.921Z,17.50
2022-11-04T08:37:21.637Z,19.15
2022-11-04T08:39:48.360Z,15.63
2022-11-04T08:42:15.258Z,16.05
2022-11-04T08:44:43.066Z,15.35
2022-11-04T08:47:10.252Z,14.98
2022-11-04T08:49:41.951Z,13.32
2022-11-04T08:52:10.074Z,16.38
2022-11-04T08:54:36.827Z,15.68
2022-11-04T08:57:04.428Z,13.57
2022-11-04T08:59:31.389Z,14.90
2022-11-04T09:01:58.226Z,14.20
2022-11-04T09:04:25.021Z,15.48
2022-11-04T09:06:52.202Z,15.10
2022-11-04T09:09:19.388Z,13.13
2022-11-04T09:11:46.799Z,12.07
2022-11-04T09:14:14.089Z,13.02
2022-11-04T09:16:41.592Z,12.48
2022-11-04T09:19:08.394Z,12.70
2022-11-04T09:21:35.290Z,12.95
2022-11-04T09:24:02.280Z,12.15
2022-11-04T09:26:31.793Z,12.02
2022-11-04T09:28:59.231Z,15.35
2022-11-04T09:31:29.133Z,11.80
2022-11-04T09:33:56.678Z,12.85
2022-11-04T09:36:26.416Z,13.20
2022-11-04T09:38:53.424Z,12.18
2022-11-04T09:41:26.129Z,13.38
2022-11-04T09:44:04.206Z,12.75
2022-11-04T09:46:33.769Z,11.68
2022-11-04T09:49:03.247Z,11.95
2022-11-04T09:51:53.242Z,11.80
2022-11-04T09:54:25.636Z,11.20
2022-11-04T09:56:55.378Z,11.93
2022-11-04T09:59:28.637Z,11.35
2022-11-04T10:02:04.593Z,8.85
2022-11-04T10:04:34.092Z,9.73
2022-11-04T10:07:06.918Z,9.88
2022-11-04T10:09:52.279Z,10.88
2022-11-04T10:12:24.581Z,10.35
2022-11-04T10:15:06.417Z,10.00
2022-11-04T10:17:59.461Z,9.77
2022-11-04T10:20:31.647Z,9.48
2022-11-04T10:23:21.166Z,8.88
2022-11-04T10:25:59.964Z,9.05
2022-11-04T10:28:36.056Z,7.28
2022-11-04T10:31:04.104Z,10.50
2022-11-04T10:33:35.793Z,9.02
2022-11-04T10:36:07.057Z,7.72
2022-11-04T10:38:37.024Z,8.57
2022-11-04T10:41:19.076Z,8.98
2022-11-04T10:43:46.379Z,10.15
2022-11-04T10:46:35.662Z,9.25
2022-11-04T10:49:26.757Z,8.35
2022-11-04T10:51:56.286Z,7.93
2022-11-04T10:54:28.317Z,7.93
2022-11-04T10:56:56.126Z,8.40
2022-11-04T10:59:27.695Z,7.00
2022-11-04T11:04:32.344Z,9.75
2022-11-04T11:07:02.118Z,9.73
2022-11-04T11:09:32.284Z,8.18
2022-11-04T11:12:29.560Z,7.63
2022-11-04T11:14:53.456Z,6.50
2022-11-04T11:17:35.509Z,7.53
2022-11-04T11:20:18.450Z,5.97
2022-11-04T11:22:47.162Z,5.70
2022-11-04T11:25:21.487Z,5.50
2022-11-04T11:27:54.622Z,5.22
2022-11-04T11:30:33.706Z,6.18
2022-11-04T11:33:03.933Z,5.97
2022-11-04T11:35:46.021Z,7.00
2022-11-04T11:38:33.236Z,7.40
2022-11-04T11:41:24.728Z,5.57
2022-11-04T11:43:53.470Z,8.00
2022-11-04T11:46:26.421Z,7.60
2022-11-04T11:49:00.972Z,6.10
2022-11-04T11:51:45.770Z,5.82
2022-11-04T11:54:33.836Z,4.68
2022-11-04T11:57:16.638Z,4.82
2022-11-04T12:03:02.976Z,6.30
2022-11-04T12:12:17.407Z,6.13
2022-11-04T12:15:12.578Z,5.57
2022-11-04T12:17:57.676Z,4.97
2022-11-04T12:20:30.220Z,5.63
2022-11-04T12:23:23.769Z,4.30
2022-11-04T12:26:11.062Z,4.57
2022-11-04T12:28:52.878Z,4.80
2022-11-04T12:31:28.781Z,4.97
2022-11-04T12:34:13.936Z,3.78
2022-11-04T12:36:46.732Z,4.53
2022-11-04T12:39:33.006Z,5.95
2022-11-04T12:42:31.314Z,3.95
2022-11-04T12:45:25.020Z,4.53
2022-11-04T12:47:59.278Z,4.55
2022-11-04T12:50:28.932Z,5.85
2022-11-04T12:52:58.763Z,4.50
2022-11-04T12:55:44.085Z,4.95
2022-11-04T12:58:19.736Z,5.13
2022-11-04T13:00:51.667Z,5.93
2022-11-04T13:03:24.050Z,5.15
2022-11-04T13:06:04.528Z,5.65
2022-11-04T13:08:49.738Z,4.63
2022-11-04T13:11:26.008Z,5.53
2022-11-04T13:14:09.663Z,6.15
2022-11-04T13:16:40.625Z,6.25
2022-11-04T13:19:23.911Z,6.53
2022-11-04T13:21:52.992Z,6.63
2022-11-04T13:24:25.895Z,8.05
2022-11-04T13:26:52.678Z,5.97
2022-11-04T13:29:21.439Z,6.70
2022-11-04T13:32:27.338Z,5.53
2022-11-04T13:35:15.244Z,5.60
2022-11-04T13:38:02.393Z,6.00
2022-11-04T13:40:41.353Z,4.47
2022-11-04T13:43:26.696Z,5.85
2022-11-04T13:45:56.481Z,6.72
2022-11-04T13:48:27.015Z,6.70
2022-11-04T13:51:01.444Z,5.32
2022-11-04T13:53:55.557Z,5.75
2022-11-04T13:56:41.273Z,8.73
2022-11-04T13:59:29.159Z,5.05
2022-11-04T14:02:11.538Z,6.45
2022-11-04T14:04:43.387Z,6.70
2022-11-04T14:09:44.469Z,5.95
2022-11-04T14:12:11.269Z,7.18
2022-11-04T14:14:43.519Z,5.38
2022-11-04T14:17:33.629Z,5.75
2022-11-04T14:20:03.256Z,5.32
2022-11-04T14:22:33.599Z,4.72
2022-11-04T14:25:03.714Z,5.95
2022-11-04T14:27:41.154Z,31.40
2022-11-04T14:30:29.641Z,8.20
2022-11-04T14:33:00.134Z,6.85
2022-11-04T14:35:28.406Z,5.53
2022-11-04T14:37:56.159Z,5.90
2022-11-04T14:40:44.237Z,8.23
2022-11-04T14:43:30.179Z,4.75
2022-11-04T14:45:58.813Z,5.07
2022-11-04T14:48:26.480Z,4.43
2022-11-04T14:50:55.838Z,4.68
2022-11-04T14:53:37.292Z,6.65
2022-11-04T14:56:05.259Z,6.38
2022-11-04T14:58:31.933Z,6.40
2022-11-04T15:01:01.187Z,6.55
2022-11-04T15:06:35.259Z,5.00
2022-11-04T15:09:22.976Z,6.45
2022-11-04T15:12:08.450Z,7.25
2022-11-04T15:14:37.059Z,4.95
2022-11-04T15:17:04.026Z,6.45
2022-11-04T15:19:33.752Z,7.13
2022-11-04T15:22:02.941Z,6.55
2022-11-04T15:24:31.005Z,5.82
2022-11-04T15:27:05.725Z,6.07
2022-11-04T15:29:32.866Z,7.35
2022-11-04T15:32:04.712Z,6.82
2022-11-04T15:34:33.173Z,7.97
2022-11-04T15:37:04.349Z,8.20
2022-11-04T15:39:36.196Z,9.93
2022-11-04T15:42:26.206Z,9.73
2022-11-04T15:44:55.203Z,8.93
2022-11-04T15:47:27.279Z,9.25
2022-11-04T15:50:03.199Z,9.23
2022-11-04T15:52:30.161Z,8.93
2022-11-04T15:54:59.240Z,8.80
2022-11-04T15:57:34.140Z,7.47
2022-11-04T16:00:16.122Z,9.30
2022-11-04T16:02:49.208Z,8.40
2022-11-04T16:05:16.215Z,8.20
2022-11-04T16:07:51.360Z,7.50
2022-11-04T16:10:34.707Z,6.75
2022-11-04T16:13:14.885Z,7.45
2022-11-04T16:15:56.975Z,7.80
2022-11-04T16:18:45.462Z,7.80
2022-11-04T16:21:23.843Z,9.35
2022-11-04T16:23:56.431Z,9.23
2022-11-04T16:26:31.613Z,7.95
2022-11-04T16:29:00.290Z,11.20
2022-11-04T16:31:33.286Z,11.38
2022-11-04T16:34:00.280Z,10.68
2022-11-04T16:36:34.098Z,9.52
2022-11-04T16:39:06.283Z,8.80
2022-11-04T16:41:36.954Z,11.27
2022-11-04T16:44:05.398Z,11.05
2022-11-04T16:46:35.173Z,11.85
2022-11-04T16:49:01.935Z,12.18
2022-11-04T16:51:28.711Z,11.55
2022-11-04T16:53:55.744Z,12.00
2022-11-04T16:56:24.667Z,11.38
2022-11-04T16:58:52.434Z,14.90
2022-11-04T17:01:19.750Z,10.57
2022-11-04T17:03:46.885Z,12.90
2022-11-04T17:06:14.798Z,11.00
2022-11-04T17:08:42.086Z,12.13
2022-11-04T17:11:10.154Z,10.80
2022-11-04T17:13:37.211Z,13.52
2022-11-04T17:16:05.797Z,12.20
2022-11-04T17:18:34.210Z,13.35
2022-11-04T17:21:05.572Z,12.55
2022-11-04T17:23:32.317Z,11.55
2022-11-04T17:25:59.338Z,14.35
2022-11-04T17:28:26.945Z,14.40
2022-11-04T17:30:53.821Z,14.63
2022-11-04T17:33:20.799Z,12.35
2022-11-04T17:35:50.086Z,15.65
2022-11-04T17:38:17.900Z,13.32
2022-11-04T17:41:03.798Z,12.48
2022-11-04T17:43:49.104Z,14.65
2022-11-04T17:46:35.476Z,17.98
2022-11-04T17:49:22.595Z,16.85
2022-11-04T17:51:55.821Z,18.98
2022-11-04T17:54:24.359Z,14.57
2022-11-04T17:56:51.076Z,13.70
2022-11-04T17:59:18.120Z,14.00
2022-11-04T18:01:45.513Z,15.15
2022-11-04T18:04:13.731Z,14.02
2022-11-04T18:06:40.505Z,14.50
2022-11-04T18:09:07.592Z,16.35
2022-11-04T18:11:52.961Z,12.50
2022-11-04T18:14:19.693Z,11.38
2022-11-04T18:16:48.887Z,10.35
2022-11-04T18:19:18.586Z,14.02
2022-11-04T18:21:45.767Z,10.30
2022-11-04T18:24:12.842Z,9.77
2022-11-04T18:26:40.021Z,10.57
2022-11-04T18:29:06.984Z,12.20
2022-11-04T18:31:43.228Z,10.50
2022-11-04T18:34:14.850Z,11.13
2022-11-04T18:36:41.712Z,12.50
2022-11-04T18:39:11.603Z,11.63
2022-11-04T18:41:42.320Z,14.85
2022-11-04T18:44:15.496Z,10.43
2022-11-04T18:46:42.651Z,11.00
2022-11-04T18:49:10.617Z,10.02
2022-11-04T18:51:37.764Z,9.90
2022-11-04T18:54:06.166Z,10.93
2022-11-04T18:56:33.516Z,10.18
2022-11-04T18:59:01.268Z,12.95
2022-11-04T19:01:31.077Z,8.38
2022-11-04T19:03:58.523Z,7.70
2022-11-04T19:06:29.402Z,9.98
2022-11-04T19:09:13.482Z,9.32
2022-11-04T19:12:09.549Z,6.53
2022-11-04T19:14:36.523Z,5.80
2022-11-04T19:17:03.347Z,8.55
2022-11-04T19:19:30.009Z,8.02
2022-11-04T19:21:56.679Z,8.38
2022-11-04T19:24:23.479Z,6.15
2022-11-04T19:26:50.208Z,7.47
2022-11-04T19:29:16.932Z,6.97
2022-11-04T19:31:43.589Z,5.43
2022-11-04T19:34:10.328Z,7.30
2022-11-04T19:36:37.961Z,7.47
2022-11-04T19:39:05.712Z,6.70
2022-11-04T19:41:50.886Z,5.50
2022-11-04T19:44:19.589Z,8.02
2022-11-04T19:46:46.934Z,7.38
2022-11-04T19:49:14.072Z,9.52
2022-11-04T19:51:41.569Z,8.75
2022-11-04T19:54:09.449Z,10.63
2022-11-04T19:56:37.127Z,12.02
2022-11-04T19:59:06.365Z,10.23
2022-11-04T20:01:34.866Z,10.07
2022-11-04T20:04:03.944Z,9.18
2022-11-04T20:06:32.341Z,10.00
2022-11-04T20:09:01.942Z,8.90
2022-11-04T20:11:28.623Z,9.45
2022-11-04T20:13:55.549Z,7.88
2022-11-04T20:16:26.381Z,7.80
2022-11-04T20:18:57.140Z,6.80
2022-11-04T20:21:25.551Z,6.90
2022-11-04T20:23:57.186Z,6.72
2022-11-04T20:26:24.940Z,7.40
2022-11-04T20:28:56.244Z,7.22
2022-11-04T20:31:25.506Z,6.47
2022-11-04T20:33:53.358Z,5.78
2022-11-04T20:36:22.127Z,8.63
2022-11-04T20:38:48.834Z,6.90
2022-11-04T20:41:18.806Z,8.52
2022-11-04T20:43:49.591Z,8.40
2022-11-04T20:46:20.372Z,7.97
2022-11-04T20:48:47.759Z,6.35
2022-11-04T20:51:21.900Z,10.52
2022-11-04T20:53:49.258Z,11.68
2022-11-04T20:56:18.255Z,9.60
2022-11-04T20:58:47.865Z,10.35
2022-11-04T21:01:21.271Z,11.88
2022-11-04T21:03:48.152Z,8.77
2022-11-04T21:06:14.824Z,10.57
2022-11-04T21:08:41.526Z,11.55
2022-11-04T21:11:08.220Z,12.05
2022-11-04T21:13:34.919Z,13.07
2022-11-04T21:16:02.440Z,13.10
2022-11-04T21:18:29.673Z,9.52
2022-11-04T21:20:57.446Z,10.93
2022-11-04T21:23:24.550Z,7.93
2022-11-04T21:25:55.017Z,14.50
2022-11-04T21:28:22.024Z,9.73
2022-11-04T21:30:50.372Z,12.15
2022-11-04T21:33:17.210Z,14.20
2022-11-04T21:35:44.199Z,10.32
2022-11-04T21:38:15.450Z,15.13
2022-11-04T21:40:43.114Z,14.05
2022-11-04T21:43:11.307Z,15.60
2022-11-04T21:45:38.611Z,15.80
2022-11-04T21:48:05.535Z,20.15
2022-11-04T21:50:32.464Z,13.80
2022-11-04T21:52:59.329Z,11.93
2022-11-04T21:55:26.159Z,12.30
2022-11-04T21:57:53.062Z,12.93
2022-11-04T22:00:20.196Z,14.55
2022-11-04T22:02:53.205Z,12.98
2022-11-04T22:05:20.943Z,12.63
2022-11-04T22:08:06.263Z,9.07
2022-11-04T22:10:36.139Z,10.50
2022-11-04T22:13:07.302Z,11.52
2022-11-04T22:15:52.788Z,12.38
2022-11-04T22:18:19.443Z,14.07
2022-11-04T22:20:46.971Z,10.68
2022-11-04T22:23:13.661Z,9.63
2022-11-04T22:25:40.362Z,10.10
2022-11-04T22:28:07.044Z,10.32
2022-11-04T22:30:36.711Z,9.88
2022-11-04T22:33:04.148Z,13.00
2022-11-04T22:35:31.206Z,14.70
2022-11-04T22:37:57.990Z,11.77
2022-11-04T22:40:24.886Z,12.35
2022-11-04T22:42:52.066Z,12.80
2022-11-04T22:45:18.923Z,12.80
2022-11-04T22:47:45.653Z,14.75
2022-11-04T22:50:12.400Z,15.80
2022-11-04T22:52:39.036Z,11.38
2022-11-04T22:55:06.105Z,13.88
2022-11-04T22:57:32.809Z,15.30
2022-11-04T22:59:59.516Z,14.48
2022-11-04T23:02:32.506Z,12.07
2022-11-04T23:05:03.387Z,13.93
2022-11-04T23:07:30.133Z,15.60
2022-11-04T23:10:15.566Z,15.45
2022-11-04T23:13:00.631Z,13.52
2022-11-04T23:15:46.117Z,12.73
2022-11-04T23:18:32.281Z,14.35
2022-11-04T23:21:17.445Z,10.35
2022-11-04T23:24:02.774Z,13.48
2022-11-04T23:26:30.369Z,8.98
2022-11-04T23:29:15.707Z,13.30
2022-11-04T23:31:42.529Z,12.20
2022-11-04T23:34:27.916Z,13.82
2022-11-04T23:37:12.847Z,12.25
2022-11-04T23:39:47.470Z,13.38
2022-11-04T23:42:17.456Z,9.18
2022-11-04T23:45:06.661Z,10.98
2022-11-04T23:47:54.501Z,11.52
2022-11-04T23:50:41.366Z,11.07
2022-11-04T23:53:34.438Z,9.13
2022-11-04T23:56:20.154Z,9.27
2022-11-04T23:59:05.194Z,8.63
